Time;durP1;ratioP1;P1;durP2;ratioP2;P2;SDS_P1;SDS_P2;PMS_P1;PMS_P2;Temp;Humidity;BMP_temperature;BMP_pressure;BME280_temperature;BME280_humidity;BME280_pressure;Samples;Min_cycle;Max_cycle;Signal;HPM_P1;HPM_P2
2022/09/20 00:01:56;;;;;;;2.40;0.68;;;12.50;51.80;;;;;;2358942;53;20969;-77
2022/09/20 00:04:23;;;;;;;1.85;0.60;;;12.50;51.90;;;;;;2343784;54;20977;-77
2022/09/20 00:06:49;;;;;;;2.05;0.57;;;12.40;51.80;;;;;;2438451;53;21758;-74
2022/09/20 00:09:16;;;;;;;3.80;0.50;;;12.40;51.80;;;;;;2361595;53;21410;-72
2022/09/20 00:11:44;;;;;;;1.77;0.65;;;12.40;51.90;;;;;;2348025;53;21018;-75
2022/09/20 00:14:13;;;;;;;1.37;0.52;;;12.40;51.90;;;;;;2331928;53;20956;-74
2022/09/20 00:16:40;;;;;;;1.12;0.43;;;12.40;52.10;;;;;;2348386;54;21036;-74
2022/09/20 00:19:06;;;;;;;2.03;0.60;;;12.30;52.00;;;;;;2339318;53;20965;-74
2022/09/20 00:21:35;;;;;;;1.45;0.60;;;12.30;52.00;;;;;;2406989;53;21209;-73
2022/09/20 00:24:01;;;;;;;2.33;0.70;;;12.30;52.10;;;;;;2339419;53;20917;-73
2022/09/20 00:26:28;;;;;;;1.45;0.52;;;12.30;52.10;;;;;;2330824;53;21865;-73
2022/09/20 00:28:56;;;;;;;2.22;0.62;;;12.30;52.10;;;;;;2341908;54;21015;-76
2022/09/20 00:31:22;;;;;;;1.42;0.52;;;12.30;52.20;;;;;;2453883;53;20981;-73
2022/09/20 00:36:37;;;;;;;1.65;0.60;;;12.20;52.30;;;;;;2446934;53;20957;-76
2022/09/20 00:39:03;;;;;;;1.15;0.40;;;12.20;52.40;;;;;;2337684;53;21940;-74
2022/09/20 00:41:38;;;;;;;1.75;0.60;;;12.20;52.50;;;;;;2342896;53;20976;-73
2022/09/20 00:44:39;;;;;;;0.75;0.40;;;12.20;52.60;;;;;;2331983;54;21051;-73
2022/09/20 00:47:06;;;;;;;3.08;0.52;;;12.20;52.90;;;;;;2575890;53;20930;-74
2022/09/20 00:49:34;;;;;;;0.85;0.50;;;12.20;52.70;;;;;;2396762;53;20989;-75
2022/09/20 00:52:01;;;;;;;1.27;0.57;;;12.20;52.90;;;;;;2346215;53;20980;-73
2022/09/20 00:54:27;;;;;;;0.93;0.47;;;12.20;52.90;;;;;;2385298;53;21031;-77
2022/09/20 00:56:54;;;;;;;2.08;0.60;;;12.20;53.10;;;;;;2362856;53;20946;-74
2022/09/20 00:59:29;;;;;;;2.10;0.73;;;12.30;53.20;;;;;;2333853;54;21013;-75
2022/09/20 01:02:02;;;;;;;2.05;0.70;;;12.30;53.40;;;;;;2382315;53;20907;-75
2022/09/20 01:04:29;;;;;;;2.90;0.70;;;12.20;53.30;;;;;;2331648;53;20871;-75
2022/09/20 01:06:57;;;;;;;1.05;0.50;;;12.30;53.30;;;;;;2342896;53;21539;-76
2022/09/20 01:09:25;;;;;;;1.73;0.50;;;12.30;53.30;;;;;;2326584;53;21356;-73
2022/09/20 01:11:52;;;;;;;2.65;0.60;;;12.40;53.40;;;;;;2351965;53;21016;-73
2022/09/20 01:14:18;;;;;;;1.42;0.40;;;12.40;53.40;;;;;;2334374;53;20999;-75
2022/09/20 01:16:45;;;;;;;1.90;0.50;;;12.40;53.40;;;;;;2339020;53;21007;-74
2022/09/20 01:19:55;;;;;;;1.62;0.50;;;12.40;53.40;;;;;;2437732;54;21026;-73
2022/09/20 01:23:59;;;;;;;3.17;0.55;;;12.50;53.90;;;;;;2340200;54;20950;-75
2022/09/20 01:26:53;;;;;;;1.42;0.60;;;12.50;53.90;;;;;;2339518;53;21055;-75
2022/09/20 01:29:35;;;;;;;0.82;0.47;;;12.50;53.50;;;;;;2343116;53;21008;-76
2022/09/20 01:32:03;;;;;;;1.02;0.60;;;12.60;53.70;;;;;;2394655;53;20949;-75
2022/09/20 01:34:36;;;;;;;1.42;0.50;;;12.50;53.40;;;;;;2338882;53;20952;-76
2022/09/20 01:37:32;;;;;;;1.87;0.50;;;12.60;53.60;;;;;;2343015;53;20996;-75
2022/09/20 01:42:36;;;;;;;1.85;0.60;;;12.60;53.80;;;;;;2469455;53;21187;-75
2022/09/20 01:45:31;;;;;;;0.93;0.40;;;12.60;53.80;;;;;;2376426;53;21083;-73
2022/09/20 01:48:46;;;;;;;2.37;0.60;;;12.60;53.40;;;;;;2356200;53;20955;-73
2022/09/20 01:52:11;;;;;;;1.90;0.50;;;12.60;53.50;;;;;;2339513;53;20936;-73
2022/09/20 01:58:28;;;;;;;2.37;0.50;;;12.60;53.50;;;;;;2342433;53;20967;-76
2022/09/20 02:03:53;;;;;;;1.05;0.40;;;12.50;53.40;;;;;;2495332;53;20929;-76
2022/09/20 02:10:39;;;;;;;0.90;0.37;;;12.50;53.30;;;;;;2344636;53;21001;-75
2022/09/20 02:14:49;;;;;;;0.77;0.30;;;12.40;53.10;;;;;;2390394;53;20980;-73
2022/09/20 02:18:11;;;;;;;1.33;0.35;;;12.30;52.90;;;;;;2341441;54;21872;-77
2022/09/20 02:21:10;;;;;;;1.08;0.40;;;12.30;52.80;;;;;;2576935;53;20956;-72
2022/09/20 02:23:59;;;;;;;0.82;0.40;;;12.20;52.90;;;;;;2580938;53;20957;-76
2022/09/20 02:31:42;;;;;;;3.33;0.82;;;12.20;52.80;;;;;;2421015;53;21000;-76
2022/09/20 02:34:32;;;;;;;1.37;0.30;;;12.20;53.00;;;;;;2352387;53;20960;-73
2022/09/20 02:37:39;;;;;;;1.25;0.50;;;12.10;52.70;;;;;;2341704;53;21020;-74
2022/09/20 02:40:25;;;;;;;0.60;0.35;;;12.00;52.80;;;;;;2336226;53;20957;-73
2022/09/20 02:45:59;;;;;;;0.98;0.40;;;12.00;52.80;;;;;;2343696;53;20960;-75
2022/09/20 02:48:46;;;;;;;0.70;0.40;;;11.90;52.90;;;;;;2339419;54;20984;-73
2022/09/20 02:52:16;;;;;;;1.02;0.40;;;11.90;52.80;;;;;;2357632;53;21543;-76
2022/09/20 02:55:06;;;;;;;1.02;0.40;;;11.80;52.80;;;;;;2368861;53;21018;-73
2022/09/20 02:57:43;;;;;;;1.48;0.50;;;11.80;52.80;;;;;;2342712;53;21011;-75
2022/09/20 03:00:26;;;;;;;1.33;0.50;;;11.70;52.80;;;;;;2365800;53;20948;-77
2022/09/20 03:03:33;;;;;;;0.88;0.40;;;11.70;52.80;;;;;;2389356;53;21018;-74
2022/09/20 03:06:27;;;;;;;1.37;0.47;;;11.70;53.00;;;;;;2351346;53;20939;-75
2022/09/20 03:15:48;;;;;;;1.58;0.55;;;11.60;52.90;;;;;;2400415;53;20935;-72
2022/09/20 03:18:16;;;;;;;1.30;0.52;;;11.60;52.90;;;;;;2369143;53;20927;-76
2022/09/20 03:21:00;;;;;;;0.82;0.40;;;11.50;52.60;;;;;;2338941;54;20935;-75
2022/09/20 03:28:45;;;;;;;1.90;0.60;;;11.50;52.90;;;;;;2338156;55;21013;-73
2022/09/20 03:33:00;;;;;;;1.30;0.55;;;11.40;53.00;;;;;;2389974;53;20948;-76
2022/09/20 03:36:09;;;;;;;1.33;0.50;;;11.30;53.10;;;;;;2391695;53;21024;-74
2022/09/20 03:42:09;;;;;;;0.75;0.40;;;11.30;53.10;;;;;;2420114;53;20998;-75
2022/09/20 03:49:30;;;;;;;1.48;0.50;;;11.30;53.10;;;;;;2342017;53;21389;-74
2022/09/20 03:55:42;;;;;;;0.52;0.40;;;11.20;53.20;;;;;;2457777;53;21002;-76
2022/09/20 04:01:39;;;;;;;0.95;0.50;;;11.20;53.10;;;;;;2338964;55;20915;-73
2022/09/20 04:04:43;;;;;;;1.35;0.50;;;11.20;53.10;;;;;;2385323;53;21019;-73
2022/09/20 04:07:54;;;;;;;1.20;0.50;;;11.10;53.20;;;;;;2355351;53;20975;-73
2022/09/20 04:10:31;;;;;;;1.40;0.47;;;11.10;53.30;;;;;;2345391;53;21441;-74
2022/09/20 04:16:50;;;;;;;2.05;0.43;;;11.10;53.20;;;;;;2333958;53;20999;-75
2022/09/20 04:19:27;;;;;;;1.27;0.50;;;11.10;53.40;;;;;;2338339;55;20947;-71
2022/09/20 04:22:01;;;;;;;2.10;0.57;;;11.10;53.20;;;;;;2387396;53;21027;-73
2022/09/20 04:26:04;;;;;;;2.10;0.62;;;11.00;53.10;;;;;;2336416;54;20915;-75
2022/09/20 04:31:13;;;;;;;2.12;0.80;;;11.00;53.40;;;;;;2341095;53;20972;-74
2022/09/20 04:33:44;;;;;;;1.48;0.50;;;10.90;53.20;;;;;;2343261;53;21798;-73
2022/09/20 04:36:35;;;;;;;;;;;10.90;52.90;;;;;;2385361;53;21001;-75
2022/09/20 04:39:55;;;;;;;1.10;0.43;;;10.90;53.20;;;;;;2340774;53;20115;-73
2022/09/20 04:43:16;;;;;;;1.33;0.50;;;10.90;53.00;;;;;;2357521;53;21014;-76
2022/09/20 04:46:51;;;;;;;1.35;0.50;;;10.80;53.20;;;;;;2338565;55;21014;-75
2022/09/20 04:51:17;;;;;;;1.85;0.50;;;10.80;53.20;;;;;;2338178;54;20967;-72
2022/09/20 04:56:51;;;;;;;2.08;0.70;;;10.70;53.20;;;;;;2338697;54;20923;-75
2022/09/20 05:03:10;;;;;;;2.45;0.80;;;10.70;53.30;;;;;;2340948;53;21420;-73
2022/09/20 05:09:38;;;;;;;1.23;0.55;;;10.60;53.30;;;;;;2339506;54;20927;-74
2022/09/20 05:14:01;;;;;;;1.75;0.50;;;10.70;53.40;;;;;;2337454;55;21018;-74
2022/09/20 05:20:19;;;;;;;2.50;0.52;;;10.60;53.40;;;;;;2352683;53;20992;-73
2022/09/20 05:29:28;;;;;;;1.08;0.50;;;10.60;53.40;;;;;;2343549;53;21499;-74
2022/09/20 05:32:59;;;;;;;0.85;0.50;;;10.50;53.30;;;;;;2344820;53;21004;-72
2022/09/20 05:35:40;;;;;;;1.52;0.70;;;10.50;53.40;;;;;;2397680;53;20916;-73
2022/09/20 05:38:35;;;;;;;1.87;0.73;;;10.40;53.30;;;;;;2369862;53;21715;-71
2022/09/20 05:41:18;;;;;;;2.00;0.90;;;10.40;53.40;;;;;;2382143;53;21002;-73
2022/09/20 05:44:03;;;;;;;2.50;0.90;;;10.40;53.70;;;;;;2339173;55;21014;-74
2022/09/20 05:46:51;;;;;;;2.12;0.95;;;10.40;53.70;;;;;;2363795;53;21051;-73
2022/09/20 05:51:10;;;;;;;1.70;0.80;;;10.40;53.80;;;;;;2338728;55;20963;-73
2022/09/20 05:53:55;;;;;;;3.17;1.02;;;10.40;53.90;;;;;;2337492;55;20895;-74
2022/09/20 05:57:00;;;;;;;4.47;1.67;;;10.40;53.80;;;;;;2339647;55;20935;-72
2022/09/20 05:59:51;;;;;;;7.32;3.15;;;10.40;54.00;;;;;;2337908;54;20903;-73
2022/09/20 06:03:17;;;;;;;7.93;3.60;;;10.40;54.10;;;;;;2340947;54;21473;-73
2022/09/20 06:08:49;;;;;;;5.68;2.83;;;10.40;54.20;;;;;;2418703;53;20951;-73
2022/09/20 06:13:03;;;;;;;5.03;2.12;;;10.40;54.20;;;;;;2349138;53;20922;-74
2022/09/20 06:15:47;;;;;;;3.58;1.60;;;10.50;54.20;;;;;;2340146;55;20947;-73
2022/09/20 06:19:55;;;;;;;3.75;1.42;;;10.50;54.30;;;;;;2336333;53;20911;-74
2022/09/20 06:22:27;;;;;;;6.50;1.48;;;10.50;54.60;;;;;;2390005;53;21026;-73
2022/09/20 06:25:12;;;;;;;3.57;1.33;;;10.50;54.20;;;;;;2336839;53;21035;-73
2022/09/20 06:27:55;;;;;;;3.20;1.33;;;10.50;54.70;;;;;;2445850;53;21678;-75
2022/09/20 06:30:43;;;;;;;2.95;1.20;;;10.50;54.60;;;;;;2338363;55;21137;-74
2022/09/20 06:33:17;;;;;;;4.53;1.60;;;10.60;54.80;;;;;;2373577;53;20944;-76
2022/09/20 06:35:56;;;;;;;2.95;1.48;;;10.60;54.70;;;;;;2338558;54;21027;-75
2022/09/20 06:41:38;;;;;;;4.12;1.55;;;10.70;55.00;;;;;;2341399;53;20988;-75
2022/09/20 06:44:08;;;;;;;4.00;1.35;;;10.70;54.80;;;;;;2338083;53;20987;-74
2022/09/20 06:46:35;;;;;;;3.50;1.42;;;10.70;55.00;;;;;;2359709;53;20954;-73
2022/09/20 06:49:01;;;;;;;3.85;1.87;;;10.80;55.10;;;;;;2386325;53;20915;-74
2022/09/20 06:51:38;;;;;;;3.78;1.90;;;10.80;55.20;;;;;;2390663;53;21007;-73
2022/09/20 06:54:05;;;;;;;3.58;1.67;;;10.90;55.50;;;;;;2491017;53;20927;-72
2022/09/20 06:56:35;;;;;;;3.17;1.52;;;10.90;55.40;;;;;;2381585;53;20931;-74
2022/09/20 06:59:11;;;;;;;3.05;1.40;;;10.90;55.50;;;;;;2367492;53;20928;-73
2022/09/20 07:01:38;;;;;;;3.28;1.40;;;11.00;55.60;;;;;;2337754;54;20939;-73
2022/09/20 07:04:08;;;;;;;2.62;1.23;;;11.10;55.80;;;;;;2342097;53;21024;-75
2022/09/20 07:06:36;;;;;;;3.95;1.50;;;11.10;55.90;;;;;;2354842;53;21075;-74
2022/09/20 07:09:03;;;;;;;3.20;1.30;;;11.20;56.10;;;;;;2382109;53;20994;-73
2022/09/20 07:11:33;;;;;;;2.83;1.00;;;11.30;56.30;;;;;;2343973;53;20946;-73
2022/09/20 07:14:00;;;;;;;2.78;1.00;;;11.30;56.30;;;;;;2339678;53;21773;-73
2022/09/20 07:16:27;;;;;;;4.25;1.33;;;11.40;56.50;;;;;;2341781;53;21012;-74
2022/09/20 07:18:53;;;;;;;2.58;1.08;;;11.50;56.60;;;;;;2432187;53;20908;-73
2022/09/20 07:21:22;;;;;;;2.83;1.10;;;11.60;56.70;;;;;;2516615;53;20983;-76
2022/09/20 07:23:50;;;;;;;3.62;1.10;;;11.70;56.80;;;;;;2339328;54;20923;-74
2022/09/20 07:26:21;;;;;;;3.65;1.10;;;11.70;56.90;;;;;;2338516;53;20918;-73
2022/09/20 07:28:49;;;;;;;6.78;1.37;;;11.90;57.10;;;;;;2471729;53;21407;-76
2022/09/20 07:31:20;;;;;;;4.00;1.50;;;12.00;57.30;;;;;;2389042;53;21262;-75
2022/09/20 07:33:49;;;;;;;2.95;1.00;;;12.10;57.60;;;;;;2420753;53;20987;-76
2022/09/20 07:36:15;;;;;;;3.45;1.23;;;12.20;57.50;;;;;;2338475;55;20946;-76
2022/09/20 07:38:42;;;;;;;4.15;1.15;;;12.30;57.50;;;;;;2328127;53;21114;-76
2022/09/20 07:41:09;;;;;;;3.15;1.20;;;12.40;57.70;;;;;;2342502;54;20957;-75
2022/09/20 07:43:35;;;;;;;4.70;1.50;;;12.50;57.80;;;;;;2342285;54;21310;-75
2022/09/20 07:46:02;;;;;;;5.05;1.60;;;12.60;58.00;;;;;;2435060;53;20948;-75
2022/09/20 07:48:30;;;;;;;5.03;1.30;;;12.70;58.30;;;;;;2373071;53;21013;-76
2022/09/20 07:51:01;;;;;;;2.97;1.40;;;12.90;58.40;;;;;;2343767;53;20992;-75
2022/09/20 07:53:28;;;;;;;4.18;1.48;;;13.00;58.40;;;;;;2393655;53;21028;-76
2022/09/20 07:56:06;;;;;;;3.00;1.23;;;13.10;58.30;;;;;;2399527;53;20968;-75
2022/09/20 07:58:33;;;;;;;4.82;1.42;;;13.30;58.60;;;;;;2341769;54;20989;-76
2022/09/20 08:01:02;;;;;;;4.62;1.55;;;13.40;58.40;;;;;;2347810;53;20992;-75
2022/09/20 08:03:30;;;;;;;3.95;1.48;;;13.50;58.30;;;;;;2342903;53;21823;-77
2022/09/20 08:06:07;;;;;;;4.15;1.10;;;13.60;58.30;;;;;;2346138;53;21020;-77
2022/09/20 08:08:35;;;;;;;2.70;1.10;;;13.80;58.50;;;;;;2542875;53;20976;-76
2022/09/20 08:11:08;;;;;;;3.87;1.17;;;13.90;58.30;;;;;;2339960;54;20952;-76
2022/09/20 08:13:39;;;;;;;4.65;1.15;;;14.00;58.20;;;;;;2368974;53;21000;-73
2022/09/20 08:16:42;;;;;;;4.30;1.58;;;14.10;58.10;;;;;;2343192;54;20960;-73
2022/09/20 08:19:20;;;;;;;4.40;1.17;;;14.30;58.00;;;;;;2358500;53;21028;-73
2022/09/20 08:21:47;;;;;;;5.57;1.15;;;14.40;57.90;;;;;;2346757;53;21326;-74
2022/09/20 08:24:15;;;;;;;3.17;1.20;;;14.40;57.70;;;;;;2354757;53;20901;-73
2022/09/20 08:27:30;;;;;;;6.07;1.30;;;14.50;57.60;;;;;;2342497;54;21000;-73
2022/09/20 08:29:56;;;;;;;2.70;1.10;;;14.60;57.70;;;;;;2387833;53;20989;-74
2022/09/20 08:32:24;;;;;;;3.58;1.08;;;14.70;57.40;;;;;;2342443;54;20947;-74
2022/09/20 08:34:52;;;;;;;4.50;1.00;;;14.80;57.40;;;;;;2343606;54;21742;-74
2022/09/20 08:37:19;;;;;;;3.05;1.10;;;14.90;57.40;;;;;;2342757;54;21381;-74
2022/09/20 08:40:14;;;;;;;4.18;1.00;;;14.90;57.40;;;;;;2375858;53;21833;-74
2022/09/20 08:42:43;;;;;;;4.10;1.85;;;15.00;57.50;;;;;;2343533;54;20964;-73
2022/09/20 08:45:16;;;;;;;3.37;1.40;;;15.10;57.40;;;;;;2342887;54;20949;-74
2022/09/20 08:48:01;;;;;;;4.12;1.40;;;15.20;57.30;;;;;;2346970;53;21492;-74
2022/09/20 08:50:27;;;;;;;5.72;1.20;;;15.30;57.50;;;;;;2341774;53;21931;-73
2022/09/20 08:52:56;;;;;;;4.60;1.40;;;15.30;57.30;;;;;;2372950;53;20988;-74
2022/09/20 08:55:33;;;;;;;2.97;1.25;;;15.40;57.20;;;;;;2417620;53;20940;-75
2022/09/20 08:58:02;;;;;;;3.47;1.37;;;15.40;57.00;;;;;;2333130;54;20956;-73
2022/09/20 09:00:32;;;;;;;4.03;1.50;;;15.50;56.90;;;;;;2344866;53;20968;-74
2022/09/20 09:03:04;;;;;;;3.05;1.35;;;15.50;56.80;;;;;;2361868;53;20972;-73
2022/09/20 09:05:42;;;;;;;3.85;1.50;;;15.60;56.80;;;;;;2337678;54;21469;-74
2022/09/20 09:08:17;;;;;;;3.83;1.12;;;15.60;56.70;;;;;;2342835;53;20941;-75
2022/09/20 09:10:52;;;;;;;4.62;1.30;;;15.60;56.60;;;;;;2557440;53;21449;-73
2022/09/20 09:13:24;;;;;;;4.65;1.37;;;15.70;56.70;;;;;;2347532;53;21012;-73
2022/09/20 09:16:01;;;;;;;2.58;0.95;;;15.70;56.90;;;;;;2551833;53;21512;-74
2022/09/20 09:18:33;;;;;;;3.67;1.40;;;15.70;57.00;;;;;;2341335;53;20996;-74
2022/09/20 09:21:04;;;;;;;3.85;1.05;;;15.80;57.20;;;;;;2343877;53;20948;-73
2022/09/20 09:23:40;;;;;;;4.50;0.98;;;15.90;57.30;;;;;;2586775;53;21767;-74
2022/09/20 09:26:14;;;;;;;3.60;1.15;;;15.90;57.10;;;;;;2342886;53;20964;-73
2022/09/20 09:29:13;;;;;;;3.87;1.40;;;16.00;57.10;;;;;;2342863;54;21048;-73
2022/09/20 09:31:40;;;;;;;4.10;1.30;;;16.10;56.90;;;;;;2344267;54;20991;-73
2022/09/20 09:34:22;;;;;;;2.65;1.08;;;16.10;56.80;;;;;;2344395;53;21008;-74
2022/09/20 09:36:49;;;;;;;3.28;1.00;;;16.20;56.60;;;;;;2343664;54;20996;-73
2022/09/20 09:39:26;;;;;;;2.25;0.90;;;16.20;56.50;;;;;;2581781;53;20924;-73
2022/09/20 09:41:52;;;;;;;4.47;0.95;;;16.30;56.50;;;;;;2342919;54;21413;-74
2022/09/20 09:44:29;;;;;;;3.85;1.05;;;16.30;56.40;;;;;;2353848;53;21480;-74
2022/09/20 09:46:56;;;;;;;2.67;0.70;;;16.30;56.30;;;;;;2346786;53;20960;-75
2022/09/20 09:49:24;;;;;;;4.97;1.20;;;16.40;56.30;;;;;;2538294;53;21552;-74
2022/09/20 09:53:43;;;;;;;3.65;1.00;;;16.50;56.40;;;;;;2589314;53;20929;-74
2022/09/20 09:56:32;;;;;;;2.75;0.88;;;16.60;56.30;;;;;;2341454;54;21064;-74
2022/09/20 10:00:20;;;;;;;3.45;1.10;;;16.70;56.10;;;;;;2342431;53;21286;-75
2022/09/20 10:05:58;;;;;;;2.75;0.88;;;16.70;56.00;;;;;;2398714;53;20948;-74
2022/09/20 10:08:50;;;;;;;3.67;1.52;;;16.80;56.20;;;;;;2344419;54;21108;-73
2022/09/20 10:18:23;;;;;;;1.90;0.73;;;16.90;55.90;;;;;;2336903;54;21484;-74
2022/09/20 10:21:23;;;;;;;2.62;1.30;;;17.00;56.00;;;;;;2341748;53;20940;-74
2022/09/20 10:24:29;;;;;;;5.05;1.20;;;17.20;55.70;;;;;;2349160;53;20993;-74
2022/09/20 10:27:09;;;;;;;7.60;1.70;;;17.30;55.80;;;;;;2455480;53;20992;-74
2022/09/20 10:31:32;;;;;;;6.20;1.87;;;17.40;56.20;;;;;;2589259;53;20893;-75
2022/09/20 10:34:40;;;;;;;3.47;1.00;;;17.40;56.20;;;;;;2343118;54;20937;-76
2022/09/20 10:37:21;;;;;;;4.30;1.10;;;17.50;55.90;;;;;;2343165;54;20928;-75
2022/09/20 10:39:49;;;;;;;4.35;1.20;;;17.60;56.60;;;;;;2343200;54;20901;-74
2022/09/20 10:43:13;;;;;;;4.35;1.23;;;17.70;56.00;;;;;;2342660;54;20936;-73
2022/09/20 10:46:32;;;;;;;3.33;1.42;;;17.80;55.60;;;;;;2500161;53;21020;-72
2022/09/20 10:49:37;;;;;;;2.12;0.80;;;17.90;55.60;;;;;;2589783;53;21710;-73
2022/09/20 10:52:41;;;;;;;2.53;0.82;;;18.00;55.20;;;;;;2342822;54;21348;-75
2022/09/20 10:55:39;;;;;;;3.62;0.95;;;18.10;55.00;;;;;;2348112;53;20984;-73
2022/09/20 10:58:32;;;;;;;2.35;0.65;;;18.20;54.80;;;;;;2340444;53;21417;-75
2022/09/20 11:01:15;;;;;;;2.12;0.90;;;18.20;54.20;;;;;;2343482;54;20940;-74
2022/09/20 11:04:15;;;;;;;3.05;0.90;;;18.30;54.30;;;;;;2587717;53;20976;-78
2022/09/20 11:07:01;;;;;;;2.22;0.75;;;18.40;54.60;;;;;;2341477;53;20936;-74
2022/09/20 11:09:32;;;;;;;2.45;0.60;;;18.40;55.00;;;;;;2345406;54;21482;-73
2022/09/20 11:12:10;;;;;;;2.37;0.60;;;18.50;54.10;;;;;;2335784;54;21017;-75
2022/09/20 11:14:57;;;;;;;1.92;0.40;;;18.50;53.00;;;;;;2343351;54;21016;-74
2022/09/20 11:17:31;;;;;;;0.93;0.35;;;18.60;52.90;;;;;;2342603;54;20909;-74
2022/09/20 11:20:18;;;;;;;2.45;0.40;;;18.70;53.90;;;;;;2412738;53;21044;-74
2022/09/20 11:22:51;;;;;;;2.75;0.60;;;18.70;52.50;;;;;;2344223;54;20963;-73
2022/09/20 11:25:38;;;;;;;3.45;0.50;;;18.80;52.70;;;;;;2348462;53;20918;-73
2022/09/20 11:28:19;;;;;;;1.50;0.60;;;18.90;52.50;;;;;;2580854;53;21604;-73
2022/09/20 11:30:54;;;;;;;2.25;0.85;;;18.90;52.30;;;;;;2344150;53;20972;-75
2022/09/20 11:33:30;;;;;;;2.10;0.65;;;19.00;52.20;;;;;;2340747;53;20956;-73
2022/09/20 11:36:04;;;;;;;3.00;0.60;;;19.00;51.70;;;;;;2346744;53;21036;-76
2022/09/20 11:38:43;;;;;;;2.08;0.45;;;19.00;51.60;;;;;;2341097;54;21877;-74
2022/09/20 11:41:29;;;;;;;1.83;0.70;;;19.00;51.20;;;;;;2584038;53;21003;-74
2022/09/20 11:44:07;;;;;;;2.60;0.50;;;19.10;50.90;;;;;;2339375;54;21298;-74
2022/09/20 11:46:53;;;;;;;1.62;0.50;;;19.10;51.30;;;;;;2341859;54;20999;-74
2022/09/20 11:49:33;;;;;;;1.40;0.40;;;19.20;50.80;;;;;;2349967;53;21854;-75
2022/09/20 11:53:45;;;;;;;1.70;0.40;;;19.20;50.80;;;;;;2326031;53;20952;-74
2022/09/20 11:56:21;;;;;;;1.48;0.30;;;19.20;50.30;;;;;;2589681;53;21023;-73
2022/09/20 11:58:57;;;;;;;0.73;0.30;;;19.20;50.40;;;;;;2404102;53;20945;-73
2022/09/20 12:01:40;;;;;;;1.10;0.40;;;19.20;50.00;;;;;;2342961;54;20949;-74
2022/09/20 12:04:41;;;;;;;1.40;0.47;;;19.20;50.30;;;;;;2343915;54;21485;-74
2022/09/20 12:07:28;;;;;;;1.48;0.47;;;19.20;49.30;;;;;;2422590;53;20929;-73
2022/09/20 12:10:00;;;;;;;1.27;0.60;;;19.20;49.50;;;;;;2343673;54;21541;-73
2022/09/20 12:12:48;;;;;;;1.85;0.40;;;19.20;49.80;;;;;;2323825;55;21808;-74
2022/09/20 12:15:55;;;;;;;1.10;0.40;;;19.20;49.30;;;;;;2342849;54;21010;-74
2022/09/20 12:18:35;;;;;;;0.68;0.32;;;19.20;49.70;;;;;;2343049;54;20973;-74
2022/09/20 12:21:21;;;;;;;3.80;0.45;;;19.20;49.90;;;;;;2348742;54;20944;-74
2022/09/20 12:24:17;;;;;;;1.37;0.60;;;19.20;49.90;;;;;;2530736;53;21015;-73
2022/09/20 12:26:44;;;;;;;1.48;0.40;;;19.20;49.00;;;;;;2343044;54;20996;-74
2022/09/20 12:34:34;;;;;;;2.53;0.70;;;19.20;49.60;;;;;;2345960;53;20940;-73
2022/09/20 12:37:22;;;;;;;1.27;0.40;;;19.30;49.30;;;;;;2588248;53;21020;-75
2022/09/20 12:39:54;;;;;;;1.30;0.30;;;19.30;49.20;;;;;;2343355;54;21017;-73
2022/09/20 12:42:29;;;;;;;1.67;0.70;;;19.30;49.90;;;;;;2341616;54;20968;-74
2022/09/20 12:45:06;;;;;;;2.53;0.40;;;19.30;49.30;;;;;;2582508;52;21025;-74
2022/09/20 12:47:33;;;;;;;2.60;0.50;;;19.30;49.40;;;;;;2340915;53;21038;-74
2022/09/20 12:52:56;;;;;;;1.25;0.40;;;19.30;49.90;;;;;;2409068;53;20937;-73
2022/09/20 12:55:41;;;;;;;1.73;0.40;;;19.40;49.60;;;;;;2590306;53;21370;-74
2022/09/20 12:58:38;;;;;;;2.55;0.50;;;19.40;49.20;;;;;;2346983;54;20928;-73
2022/09/20 13:01:27;;;;;;;1.73;0.50;;;19.50;49.10;;;;;;2590365;53;21019;-74
2022/09/20 13:03:58;;;;;;;2.47;0.50;;;19.50;48.80;;;;;;2342688;54;20992;-73
2022/09/20 13:06:25;;;;;;;2.07;0.50;;;19.50;49.20;;;;;;2578893;53;21775;-74
2022/09/20 13:09:04;;;;;;;1.73;0.57;;;19.60;49.00;;;;;;2393423;53;21036;-74
2022/09/20 13:11:46;;;;;;;1.02;0.40;;;19.60;48.50;;;;;;2342748;53;21859;-77
2022/09/20 13:14:45;;;;;;;1.17;0.47;;;19.70;48.10;;;;;;2350055;53;20970;-75
2022/09/20 13:17:28;;;;;;;1.05;0.32;;;19.70;47.20;;;;;;2368990;53;21016;-74
2022/09/20 13:19:55;;;;;;;0.73;0.30;;;19.70;47.60;;;;;;2343794;53;20952;-76
2022/09/20 13:22:37;;;;;;;1.30;0.30;;;19.70;47.90;;;;;;2342889;54;21687;-77
2022/09/20 13:25:04;;;;;;;1.33;0.43;;;19.70;47.50;;;;;;2341206;54;21000;-76
2022/09/20 13:27:36;;;;;;;2.85;0.47;;;19.70;47.70;;;;;;2341989;54;21142;-74
2022/09/20 13:30:20;;;;;;;0.90;0.30;;;19.70;47.50;;;;;;2588345;53;21016;-77
2022/09/20 13:32:49;;;;;;;1.85;0.30;;;19.70;47.00;;;;;;2387906;53;20972;-74
2022/09/20 13:35:22;;;;;;;1.37;0.40;;;19.70;47.60;;;;;;2342495;53;20929;-75
2022/09/20 13:38:06;;;;;;;0.98;0.30;;;19.80;47.50;;;;;;2343752;54;21019;-74
2022/09/20 13:40:34;;;;;;;1.92;0.40;;;19.70;46.80;;;;;;2346580;53;21899;-74
2022/09/20 13:43:20;;;;;;;1.17;0.35;;;19.70;47.40;;;;;;2343516;53;20999;-76
2022/09/20 13:46:23;;;;;;;1.95;0.30;;;19.70;47.30;;;;;;2345546;53;21032;-74
2022/09/20 13:49:07;;;;;;;1.17;0.47;;;19.70;46.70;;;;;;2588483;53;20929;-75
2022/09/20 13:51:35;;;;;;;1.27;0.40;;;19.70;47.10;;;;;;2342587;54;21305;-74
2022/09/20 13:54:30;;;;;;;1.70;0.35;;;19.70;47.40;;;;;;2341815;54;20960;-74
2022/09/20 13:57:02;;;;;;;1.33;0.32;;;19.70;46.90;;;;;;2339871;54;21778;-76
2022/09/20 13:59:33;;;;;;;2.03;0.68;;;19.70;47.30;;;;;;2343393;54;20981;-75
2022/09/20 14:02:49;;;;;;;2.17;0.65;;;19.70;47.30;;;;;;2401939;53;20969;-74
2022/09/20 14:05:22;;;;;;;1.83;0.50;;;19.70;46.80;;;;;;2346845;53;21488;-75
2022/09/20 14:07:49;;;;;;;2.37;0.50;;;19.70;47.10;;;;;;2522029;53;21480;-74
2022/09/20 14:10:42;;;;;;;2.00;0.47;;;19.70;47.20;;;;;;2586883;53;21037;-74
2022/09/20 14:13:14;;;;;;;1.98;0.50;;;19.70;46.50;;;;;;2584791;53;21496;-76
2022/09/20 14:15:45;;;;;;;1.05;0.37;;;19.70;46.90;;;;;;2387450;53;20948;-76
2022/09/20 14:18:31;;;;;;;1.20;0.40;;;19.60;47.00;;;;;;2341377;53;21821;-75
2022/09/20 14:21:30;;;;;;;1.10;0.40;;;19.70;46.70;;;;;;2341534;54;20964;-76
2022/09/20 14:24:07;;;;;;;1.00;0.30;;;19.60;46.70;;;;;;2339934;54;20992;-74
2022/09/20 14:26:35;;;;;;;2.42;0.40;;;19.60;47.10;;;;;;2472649;53;21028;-74
2022/09/20 14:29:32;;;;;;;1.05;0.32;;;19.60;47.10;;;;;;2343810;53;20956;-76
2022/09/20 14:31:59;;;;;;;2.15;0.40;;;19.60;46.70;;;;;;2185841;54;8704032;-74
2022/09/20 14:34:26;;;;;;;3.37;0.40;;;19.60;46.90;;;;;;2369173;54;20993;-77
2022/09/20 14:37:02;;;;;;;2.15;0.60;;;19.60;47.00;;;;;;2329819;54;21009;-75
2022/09/20 14:39:32;;;;;;;1.48;0.57;;;19.60;46.80;;;;;;2399363;54;20914;-75
2022/09/20 14:41:59;;;;;;;3.95;0.60;;;19.60;46.80;;;;;;2387281;54;20973;-74
2022/09/20 14:44:36;;;;;;;1.87;0.50;;;19.60;46.70;;;;;;2553275;54;21060;-75
2022/09/20 14:47:15;;;;;;;2.95;0.52;;;19.60;46.60;;;;;;2318788;55;21069;-77
2022/09/20 14:49:44;;;;;;;2.05;0.60;;;19.70;46.20;;;;;;2294530;54;21703;-74
2022/09/20 14:55:55;;;;;;;5.00;1.33;;;19.70;46.50;;;;;;2377395;54;21039;-74
2022/09/20 14:58:23;;;;;;;0.50;0.20;;;19.70;46.40;;;;;;2296813;55;20941;-76
2022/09/20 15:01:14;;;;;;;1.05;0.30;;;19.70;47.30;;;;;;2313472;55;20921;-74
2022/09/20 15:03:40;;;;;;;0.30;0.20;;;19.70;46.60;;;;;;2303027;54;21013;-73
2022/09/20 15:06:09;;;;;;;2.22;0.57;;;19.70;46.50;;;;;;2304688;55;20957;-76
2022/09/20 15:08:37;;;;;;;2.15;0.47;;;19.60;46.40;;;;;;2294073;54;20966;-74
2022/09/20 15:11:04;;;;;;;1.87;0.30;;;19.60;46.40;;;;;;2302174;55;20978;-75
2022/09/20 15:13:30;;;;;;;0.52;0.30;;;19.60;46.50;;;;;;2548615;54;20929;-76
2022/09/20 15:16:00;;;;;;;1.83;0.50;;;19.60;46.70;;;;;;2361352;54;20921;-74
2022/09/20 15:18:29;;;;;;;2.35;0.40;;;19.60;46.50;;;;;;2449154;54;20937;-75
2022/09/20 15:20:56;;;;;;;1.85;0.40;;;19.60;46.50;;;;;;2303665;55;20989;-75
2022/09/20 15:23:22;;;;;;;0.98;0.37;;;19.60;46.50;;;;;;2304365;54;20977;-74
2022/09/20 15:25:49;;;;;;;2.28;0.35;;;19.60;46.50;;;;;;2365196;54;21013;-76
2022/09/20 15:28:17;;;;;;;1.30;0.50;;;19.60;46.50;;;;;;2309469;55;21014;-74
2022/09/20 15:31:15;;;;;;;2.05;0.88;;;19.60;46.50;;;;;;2299207;55;20988;-74
2022/09/20 15:33:42;;;;;;;1.20;0.40;;;19.60;46.30;;;;;;2314723;55;20997;-74
2022/09/20 15:36:09;;;;;;;3.33;0.40;;;19.60;46.60;;;;;;2452321;54;21455;-74
2022/09/20 15:38:35;;;;;;;2.62;0.50;;;19.60;46.60;;;;;;2309865;55;20993;-74
2022/09/20 15:41:02;;;;;;;0.68;0.32;;;19.60;46.60;;;;;;2314081;55;20946;-74
2022/09/20 15:43:29;;;;;;;0.65;0.32;;;19.60;46.70;;;;;;2332942;54;21047;-74
2022/09/20 15:45:59;;;;;;;2.42;0.50;;;19.60;46.80;;;;;;2313487;55;20957;-74
2022/09/20 15:48:28;;;;;;;0.77;0.30;;;19.60;46.90;;;;;;2296090;55;20981;-78
2022/09/20 15:51:05;;;;;;;0.90;0.30;;;19.60;46.90;;;;;;2310246;55;21725;-75
2022/09/20 15:53:44;;;;;;;1.73;0.30;;;19.60;46.60;;;;;;2299188;55;21462;-75
2022/09/20 15:56:20;;;;;;;1.17;0.40;;;19.60;46.80;;;;;;2312398;55;20973;-76